Airport ICAO


18:41 UTC

21°C

Overcast


An affordable passengers' Moving Map for your aircraft. Made for the iPad and the iPhone
More information here

LFMD Mandelieu


Cannes FRANCE   VFR


METAR LFMD 171830Z AUTO 01003KT 330V050 9999 BKN060 OVC070 21/15 Q1014 TEMPO 4000 RA 0h11min

TAF LFMD 171400Z 1715/1815 07010KT 9999 BKN060 BECMG 1715/1717 VRB04KT TEMPO 1718/1802 VRB10G20KT 4000 RA BECMG 1808/1810 15010KT 4h41min





NOTAMS

OPEN